CBR8 weather

Prince Rupert (Hospital) Heliport
Prince Rupert, British Columbia, Canada

Public forecast

Using degrees Celsius for public forecast. Weather courtesy of forecast.io.

METAR (pilot weather report)

Closest report is Prince Rupert Airport, 4.2 nm (7.7 km) WSW. Retrieved 2019/07/17 04:00 UTC (22 minutes ago):

CYPR 170400Z AUTO 12009KT 9SM -RA SCT065 OVC085 15/13 A2968 RMK SLP052 DENSITY ALT 300FT

TAF (pilot weather forecast)

Forecast is more than 6 hours old.

Closest forecast is Prince Rupert Airport, 4.2 nm (7.7 km) WSW. Retrieved 2019/07/16 19:45 UTC (9 hours ago):

TAF TAF CYPR 161842Z 1619/1707 10005KT P6SM SCT030 BKN050 OVC080 TEMPO 1619/1621 P6SM -RA BKN020 FM162100 14008KT P6SM -RA SCT012 BKN025 OVC040 TEMPO 1621/1707 4SM -RA BR BKN008 OVC020 RMK FCST BASED ON AUTO OBS. NXT FCST BY 170100Z